createdAt,value
2022-09-25T00:01:00.363Z,6.18
2022-09-25T00:03:30.485Z,9.45
2022-09-25T00:06:09.649Z,9.15
2022-09-25T00:08:37.386Z,7.93
2022-09-25T00:11:11.111Z,11.02
2022-09-25T00:13:38.591Z,6.88
2022-09-25T00:16:05.718Z,6.50
2022-09-25T00:18:51.321Z,8.93
2022-09-25T00:21:18.537Z,8.30
2022-09-25T00:23:46.200Z,8.32
2022-09-25T00:26:15.393Z,10.65
2022-09-25T00:28:43.251Z,8.45
2022-09-25T00:31:11.113Z,9.98
2022-09-25T00:33:37.874Z,8.82
2022-09-25T00:36:07.551Z,4.82
2022-09-25T00:38:35.994Z,10.65
2022-09-25T00:41:03.560Z,7.50
2022-09-25T00:43:40.927Z,8.63
2022-09-25T00:46:13.798Z,6.55
2022-09-25T00:49:00.848Z,12.45
2022-09-25T00:51:34.981Z,7.43
2022-09-25T00:54:05.442Z,9.02
2022-09-25T00:56:37.968Z,10.50
2022-09-25T00:59:06.971Z,7.85
2022-09-25T01:01:33.677Z,7.13
2022-09-25T01:04:00.691Z,10.68
2022-09-25T01:06:28.256Z,10.70
2022-09-25T01:08:56.613Z,10.68
2022-09-25T01:11:23.319Z,10.40
2022-09-25T01:13:54.164Z,10.05
2022-09-25T01:16:35.542Z,11.15
2022-09-25T01:19:20.425Z,8.20
2022-09-25T01:21:54.704Z,20.35
2022-09-25T01:24:42.805Z,9.40
2022-09-25T01:27:27.736Z,7.90
2022-09-25T01:30:05.951Z,10.48
2022-09-25T01:32:43.629Z,6.93
2022-09-25T01:35:22.263Z,14.07
2022-09-25T01:38:00.162Z,7.55
2022-09-25T01:40:26.875Z,7.38
2022-09-25T01:43:01.937Z,7.93
2022-09-25T01:45:55.265Z,10.45
2022-09-25T01:48:26.617Z,6.00
2022-09-25T01:51:31.244Z,9.52
2022-09-25T01:54:04.314Z,8.20
2022-09-25T01:56:39.986Z,6.03
2022-09-25T01:59:13.351Z,7.50
2022-09-25T02:01:42.603Z,9.38
2022-09-25T02:04:16.424Z,6.90
2022-09-25T02:06:47.713Z,14.68
2022-09-25T02:09:20.811Z,10.00
2022-09-25T02:11:51.869Z,8.95
2022-09-25T02:14:23.374Z,9.73
2022-09-25T02:16:56.451Z,6.88
2022-09-25T02:19:42.753Z,8.95
2022-09-25T02:22:20.328Z,5.20
2022-09-25T02:25:00.725Z,8.75
2022-09-25T02:27:28.556Z,16.23
2022-09-25T02:29:58.576Z,9.80
2022-09-25T02:32:31.173Z,7.95
2022-09-25T02:35:00.011Z,7.05
2022-09-25T02:37:27.394Z,9.43
2022-09-25T02:39:58.270Z,10.45
2022-09-25T02:42:36.331Z,9.70
2022-09-25T02:45:42.830Z,10.68
2022-09-25T02:48:16.066Z,8.27
2022-09-25T02:50:54.648Z,11.13
2022-09-25T02:53:36.699Z,9.25
2022-09-25T02:56:09.843Z,9.68
2022-09-25T02:58:52.549Z,8.35
2022-09-25T03:01:22.581Z,4.73
2022-09-25T03:03:53.944Z,6.13
2022-09-25T03:06:22.720Z,7.78
2022-09-25T03:08:54.364Z,12.18
2022-09-25T03:11:21.852Z,6.55
2022-09-25T03:14:07.558Z,4.60
2022-09-25T03:16:52.075Z,5.80
2022-09-25T03:19:22.116Z,9.00
2022-09-25T03:21:50.080Z,7.70
2022-09-25T03:24:17.216Z,8.13
2022-09-25T03:26:44.647Z,7.15
2022-09-25T03:29:15.410Z,8.13
2022-09-25T03:31:42.738Z,9.57
2022-09-25T03:34:11.306Z,11.10
2022-09-25T03:36:38.059Z,11.15
2022-09-25T03:39:06.191Z,7.85
2022-09-25T03:41:35.475Z,5.03
2022-09-25T03:44:02.388Z,7.50
2022-09-25T03:46:31.940Z,7.13
2022-09-25T03:48:58.993Z,8.52
2022-09-25T03:51:27.618Z,9.10
2022-09-25T03:53:54.734Z,5.65
2022-09-25T03:56:24.619Z,7.38
2022-09-25T03:58:54.425Z,7.68
2022-09-25T04:01:22.693Z,7.43
2022-09-25T04:03:50.047Z,8.95
2022-09-25T04:06:20.121Z,7.93
2022-09-25T04:08:48.555Z,7.22
2022-09-25T04:11:17.127Z,7.43
2022-09-25T04:13:46.991Z,7.40
2022-09-25T04:16:16.155Z,8.85
2022-09-25T04:18:43.652Z,7.65
2022-09-25T04:21:13.534Z,8.82
2022-09-25T04:23:41.150Z,6.10
2022-09-25T04:26:09.264Z,13.88
2022-09-25T04:28:36.362Z,5.95
2022-09-25T04:31:04.153Z,11.27
2022-09-25T04:33:46.573Z,9.55
2022-09-25T04:36:14.461Z,12.45
2022-09-25T04:38:41.367Z,7.15
2022-09-25T04:41:08.321Z,10.55
2022-09-25T04:43:35.510Z,8.10
2022-09-25T04:46:06.970Z,8.57
2022-09-25T04:48:34.299Z,7.55
2022-09-25T04:51:01.101Z,11.35
2022-09-25T04:53:30.555Z,13.88
2022-09-25T04:56:02.464Z,9.20
2022-09-25T04:58:29.184Z,9.98
2022-09-25T05:00:55.910Z,7.47
2022-09-25T05:03:22.679Z,7.82
2022-09-25T05:05:49.728Z,5.25
2022-09-25T05:08:16.410Z,8.32
2022-09-25T05:10:44.391Z,10.98
2022-09-25T05:13:11.447Z,10.25
2022-09-25T05:15:38.230Z,7.68
2022-09-25T05:18:15.909Z,9.27
2022-09-25T05:20:42.884Z,9.07
2022-09-25T05:23:09.769Z,6.85
2022-09-25T05:25:36.570Z,6.70
2022-09-25T05:28:03.536Z,6.13
2022-09-25T05:30:32.559Z,7.70
2022-09-25T05:32:59.842Z,5.40
2022-09-25T05:35:29.400Z,6.85
2022-09-25T05:37:56.316Z,3.88
2022-09-25T05:40:24.268Z,7.22
2022-09-25T05:42:52.128Z,6.55
2022-09-25T05:45:20.390Z,7.05
2022-09-25T05:47:47.366Z,5.90
2022-09-25T05:50:16.310Z,10.48
2022-09-25T05:52:43.452Z,7.95
2022-09-25T05:55:11.067Z,4.68
2022-09-25T05:57:38.825Z,9.93
2022-09-25T06:00:11.667Z,8.75
2022-09-25T06:02:38.344Z,8.93
2022-09-25T06:05:05.544Z,10.45
2022-09-25T06:07:32.250Z,8.05
2022-09-25T06:09:58.931Z,4.82
2022-09-25T06:12:25.724Z,6.80
2022-09-25T06:14:52.822Z,7.18
2022-09-25T06:17:20.413Z,9.13
2022-09-25T06:19:47.656Z,6.38
2022-09-25T06:22:14.619Z,8.25
2022-09-25T06:24:41.393Z,7.15
2022-09-25T06:27:08.925Z,6.15
2022-09-25T06:29:36.078Z,10.30
2022-09-25T06:32:05.840Z,6.00
2022-09-25T06:34:32.809Z,6.93
2022-09-25T06:37:01.288Z,6.15
2022-09-25T06:39:28.015Z,9.27
2022-09-25T06:41:54.655Z,6.78
2022-09-25T06:44:23.045Z,5.85
2022-09-25T06:46:54.631Z,7.78
2022-09-25T06:49:22.067Z,7.45
2022-09-25T06:51:51.146Z,6.93
2022-09-25T06:54:18.178Z,6.78
2022-09-25T06:56:49.483Z,5.72
2022-09-25T06:59:17.074Z,5.30
2022-09-25T07:01:43.891Z,7.05
2022-09-25T07:04:10.716Z,7.57
2022-09-25T07:06:37.977Z,6.75
2022-09-25T07:09:04.898Z,6.43
2022-09-25T07:11:31.649Z,6.50
2022-09-25T07:13:58.667Z,6.57
2022-09-25T07:16:27.898Z,6.10
2022-09-25T07:18:57.399Z,5.47
2022-09-25T07:21:25.897Z,8.23
2022-09-25T07:23:52.682Z,6.95
2022-09-25T07:26:22.531Z,9.45
2022-09-25T07:28:57.728Z,6.85
2022-09-25T07:31:29.658Z,5.95
2022-09-25T07:33:59.589Z,9.43
2022-09-25T07:36:26.263Z,7.53
2022-09-25T07:38:53.491Z,8.40
2022-09-25T07:41:22.878Z,7.95
2022-09-25T07:46:44.881Z,5.25
2022-09-25T07:49:12.149Z,8.00
2022-09-25T07:51:41.701Z,6.82
2022-09-25T07:54:08.539Z,5.63
2022-09-25T07:56:35.373Z,7.75
2022-09-25T07:59:02.110Z,7.07
2022-09-25T08:01:28.896Z,5.40
2022-09-25T08:03:55.690Z,7.65
2022-09-25T08:06:22.382Z,4.25
2022-09-25T08:08:49.137Z,6.28
2022-09-25T08:11:18.377Z,6.45
2022-09-25T08:13:46.140Z,6.70
2022-09-25T08:16:18.169Z,5.45
2022-09-25T08:18:46.684Z,7.10
2022-09-25T08:21:16.076Z,5.05
2022-09-25T08:23:48.045Z,7.90
2022-09-25T08:26:15.678Z,6.20
2022-09-25T08:28:42.659Z,4.28
2022-09-25T08:31:09.462Z,3.67
2022-09-25T08:33:37.524Z,4.68
2022-09-25T08:36:05.623Z,4.50
2022-09-25T08:38:33.396Z,4.45
2022-09-25T08:41:09.668Z,4.05
2022-09-25T08:43:43.111Z,5.82
2022-09-25T08:46:41.283Z,3.67
2022-09-25T08:49:11.303Z,3.83
2022-09-25T08:51:38.107Z,7.65
2022-09-25T08:54:06.010Z,4.55
2022-09-25T08:56:35.269Z,5.53
2022-09-25T08:59:10.821Z,5.40
2022-09-25T09:01:44.201Z,4.20
2022-09-25T09:04:19.879Z,4.28
2022-09-25T09:07:08.113Z,5.72
2022-09-25T09:09:52.974Z,8.63
2022-09-25T09:12:32.124Z,5.82
2022-09-25T09:15:16.683Z,3.90
2022-09-25T09:17:43.701Z,3.50
2022-09-25T09:20:19.383Z,5.60
2022-09-25T09:22:53.285Z,5.20
2022-09-25T09:25:35.246Z,6.50
2022-09-25T09:28:23.082Z,4.75
2022-09-25T09:30:58.716Z,4.00
2022-09-25T09:33:35.636Z,3.92
2022-09-25T09:36:13.682Z,4.40
2022-09-25T09:39:02.603Z,8.77
2022-09-25T09:41:44.208Z,5.35
2022-09-25T09:44:13.833Z,5.25
2022-09-25T09:47:04.229Z,4.25
2022-09-25T09:49:47.539Z,5.85
2022-09-25T09:52:25.598Z,3.83
2022-09-25T09:55:07.673Z,3.78
2022-09-25T09:57:47.563Z,5.38
2022-09-25T10:00:17.129Z,3.25
2022-09-25T10:02:46.304Z,3.33
2022-09-25T10:05:22.949Z,4.28
2022-09-25T10:07:51.452Z,3.55
2022-09-25T10:10:19.626Z,3.35
2022-09-25T10:12:53.060Z,4.93
2022-09-25T10:15:36.317Z,4.25
2022-09-25T10:18:04.474Z,3.10
2022-09-25T10:21:06.861Z,4.88
2022-09-25T10:23:51.632Z,5.65
2022-09-25T10:26:33.427Z,2.75
2022-09-25T10:29:05.794Z,2.92
2022-09-25T10:31:40.834Z,3.35
2022-09-25T10:34:13.659Z,4.93
2022-09-25T10:36:46.544Z,3.55
2022-09-25T10:39:44.718Z,4.70
2022-09-25T10:42:37.592Z,3.03
2022-09-25T10:45:32.174Z,2.25
2022-09-25T10:48:17.718Z,3.00
2022-09-25T10:50:44.644Z,2.95
2022-09-25T10:53:33.378Z,3.05
2022-09-25T10:56:13.089Z,3.00
2022-09-25T10:58:55.284Z,3.53
2022-09-25T11:01:31.251Z,2.50
2022-09-25T11:03:59.013Z,5.47
2022-09-25T11:06:33.379Z,3.78
2022-09-25T11:09:13.699Z,4.30
2022-09-25T11:11:41.459Z,3.13
2022-09-25T11:14:22.657Z,4.30
2022-09-25T11:16:55.493Z,3.13
2022-09-25T11:19:25.419Z,4.47
2022-09-25T11:22:18.341Z,5.65
2022-09-25T11:25:01.086Z,3.95
2022-09-25T11:30:18.309Z,3.08
2022-09-25T11:33:09.098Z,3.15
2022-09-25T11:35:45.992Z,4.05
2022-09-25T11:38:15.712Z,2.30
2022-09-25T11:41:18.729Z,3.05
2022-09-25T11:43:58.371Z,5.03
2022-09-25T11:47:04.973Z,5.70
2022-09-25T11:49:38.323Z,5.15
2022-09-25T11:52:23.953Z,8.93
2022-09-25T11:55:34.763Z,4.05
2022-09-25T11:58:04.361Z,5.32
2022-09-25T12:00:38.653Z,4.30
2022-09-25T12:03:30.419Z,4.40
2022-09-25T12:06:15.978Z,3.58
2022-09-25T12:09:04.267Z,4.53
2022-09-25T12:11:45.623Z,5.20
2022-09-25T12:14:22.536Z,1.90
2022-09-25T12:17:01.917Z,4.88
2022-09-25T12:19:45.649Z,3.22
2022-09-25T12:22:49.843Z,5.88
2022-09-25T12:25:45.189Z,2.88
2022-09-25T12:28:17.843Z,3.05
2022-09-25T12:31:10.698Z,4.10
2022-09-25T12:33:46.328Z,3.20
2022-09-25T12:36:19.415Z,2.35
2022-09-25T12:41:36.453Z,3.00
2022-09-25T12:44:27.451Z,2.53
2022-09-25T12:46:57.731Z,2.72
2022-09-25T12:49:37.306Z,3.53
2022-09-25T12:52:17.366Z,4.25
2022-09-25T12:55:07.647Z,3.42
2022-09-25T12:57:46.034Z,1.60
2022-09-25T13:00:29.199Z,2.85
2022-09-25T13:03:02.248Z,2.08
2022-09-25T13:08:12.998Z,3.28
2022-09-25T13:11:02.320Z,5.32
2022-09-25T13:13:36.221Z,2.88
2022-09-25T13:16:03.757Z,3.20
2022-09-25T13:18:34.213Z,3.38
2022-09-25T13:21:31.790Z,6.68
2022-09-25T13:24:00.300Z,4.18
2022-09-25T13:26:28.256Z,2.95
2022-09-25T13:29:01.908Z,2.05
2022-09-25T13:31:34.627Z,2.08
2022-09-25T13:34:01.566Z,2.10
2022-09-25T13:36:38.129Z,3.10
2022-09-25T13:39:45.018Z,1.70
2022-09-25T13:42:39.493Z,1.90
2022-09-25T13:45:26.203Z,3.25
2022-09-25T13:48:04.450Z,4.20
2022-09-25T13:50:37.864Z,1.50
2022-09-25T13:53:23.172Z,6.43
2022-09-25T13:55:56.496Z,1.83
2022-09-25T13:58:29.323Z,2.55
2022-09-25T14:01:03.177Z,1.48
2022-09-25T14:03:50.543Z,1.42
2022-09-25T14:06:20.879Z,2.10
2022-09-25T14:08:49.654Z,5.95
2022-09-25T14:11:22.484Z,2.50
2022-09-25T14:13:52.877Z,2.97
2022-09-25T14:16:30.703Z,3.28
2022-09-25T14:18:59.296Z,1.90
2022-09-25T14:21:28.529Z,4.20
2022-09-25T14:24:13.232Z,2.53
2022-09-25T14:26:45.568Z,3.13
2022-09-25T14:29:23.672Z,1.63
2022-09-25T14:32:42.855Z,4.32
2022-09-25T14:35:25.169Z,1.80
2022-09-25T14:38:12.341Z,3.25
2022-09-25T14:41:56.157Z,1.63
2022-09-25T14:44:57.702Z,2.30
2022-09-25T14:47:34.992Z,5.13
2022-09-25T14:50:03.171Z,2.53
2022-09-25T14:52:34.859Z,1.13
2022-09-25T14:55:03.276Z,1.50
2022-09-25T14:57:34.856Z,1.67
2022-09-25T15:00:08.215Z,2.40
2022-09-25T15:02:41.866Z,1.90
2022-09-25T15:05:21.632Z,2.83
2022-09-25T15:07:48.320Z,2.25
2022-09-25T15:10:34.854Z,3.00
2022-09-25T15:13:10.591Z,5.78
2022-09-25T15:15:38.875Z,1.70
2022-09-25T15:18:13.113Z,2.38
2022-09-25T15:20:46.971Z,3.65
2022-09-25T15:23:21.331Z,3.10
2022-09-25T15:25:51.775Z,1.48
2022-09-25T15:28:25.525Z,3.05
2022-09-25T15:31:00.772Z,2.28
2022-09-25T15:33:34.161Z,3.25
2022-09-25T15:36:06.339Z,3.30
2022-09-25T15:38:35.774Z,1.87
2022-09-25T15:41:22.255Z,3.72
2022-09-25T15:44:18.461Z,2.72
2022-09-25T15:47:00.869Z,3.80
2022-09-25T15:49:39.096Z,3.47
2022-09-25T15:52:25.214Z,2.97
2022-09-25T15:54:51.984Z,5.00
2022-09-25T15:57:28.344Z,5.00
2022-09-25T16:00:13.946Z,4.25
2022-09-25T16:03:09.744Z,4.93
2022-09-25T16:05:43.749Z,3.53
2022-09-25T16:08:25.804Z,4.55
2022-09-25T16:11:21.821Z,2.67
2022-09-25T16:13:53.996Z,3.78
2022-09-25T16:16:22.219Z,6.10
2022-09-25T16:18:51.219Z,5.18
2022-09-25T16:21:26.933Z,3.60
2022-09-25T16:24:00.132Z,4.10
2022-09-25T16:26:36.214Z,4.65
2022-09-25T16:29:19.489Z,4.40
2022-09-25T16:31:47.077Z,4.78
2022-09-25T16:34:34.356Z,4.72
2022-09-25T16:37:05.277Z,4.32
2022-09-25T16:39:36.209Z,5.35
2022-09-25T16:42:26.623Z,3.92
2022-09-25T16:45:03.942Z,6.38
2022-09-25T16:47:30.914Z,5.97
2022-09-25T16:49:57.705Z,6.07
2022-09-25T16:52:29.541Z,3.95
2022-09-25T16:54:57.506Z,4.53
2022-09-25T16:57:27.993Z,5.22
2022-09-25T16:59:55.032Z,6.65
2022-09-25T17:02:37.293Z,4.97
2022-09-25T17:05:08.377Z,5.50
2022-09-25T17:07:35.193Z,6.72
2022-09-25T17:10:02.474Z,6.93
2022-09-25T17:12:31.478Z,8.65
2022-09-25T17:14:58.673Z,7.03
2022-09-25T17:17:25.527Z,5.75
2022-09-25T17:19:52.232Z,5.50
2022-09-25T17:22:18.997Z,5.82
2022-09-25T17:24:45.857Z,5.10
2022-09-25T17:27:14.818Z,6.18
2022-09-25T17:29:42.786Z,4.40
2022-09-25T17:32:17.807Z,7.50
2022-09-25T17:34:46.589Z,5.50
2022-09-25T17:37:13.604Z,5.88
2022-09-25T17:39:40.268Z,6.15
2022-09-25T18:35:56.238Z,2.97
2022-09-25T18:38:23.622Z,6.03
2022-09-25T18:40:59.888Z,4.47
2022-09-25T18:43:27.743Z,4.53
2022-09-25T18:45:56.645Z,10.80
2022-09-25T18:51:08.745Z,7.63
2022-09-25T18:56:27.209Z,6.40
2022-09-25T18:58:54.503Z,6.82
2022-09-25T19:01:21.715Z,6.68
2022-09-25T19:03:52.998Z,7.28
2022-09-25T19:06:20.385Z,8.43
2022-09-25T19:08:55.958Z,8.45
2022-09-25T19:11:27.604Z,5.32
2022-09-25T19:13:54.866Z,7.80
2022-09-25T19:16:22.419Z,13.90
2022-09-25T19:18:50.400Z,5.25
2022-09-25T19:21:22.451Z,7.10
2022-09-25T19:23:50.067Z,4.00
2022-09-25T19:26:20.996Z,4.30
2022-09-25T19:28:48.473Z,8.25
2022-09-25T19:31:17.884Z,5.60
2022-09-25T19:33:44.848Z,4.38
2022-09-25T19:36:38.613Z,6.20
2022-09-25T19:41:34.405Z,5.28
2022-09-25T19:44:08.182Z,3.10
2022-09-25T19:46:40.316Z,7.00
2022-09-25T19:49:07.248Z,4.03
2022-09-25T19:51:34.108Z,6.72
2022-09-25T19:54:00.789Z,5.88
2022-09-25T19:56:27.479Z,10.88
2022-09-25T19:58:54.163Z,7.05
2022-09-25T20:01:27.712Z,5.90
2022-09-25T20:03:58.290Z,5.32
2022-09-25T20:06:26.981Z,6.63
2022-09-25T20:08:58.180Z,3.92
2022-09-25T20:11:26.000Z,2.70
2022-09-25T20:13:54.123Z,6.32
2022-09-25T20:16:26.399Z,2.70
2022-09-25T20:18:57.811Z,4.93
2022-09-25T20:21:25.644Z,5.00
2022-09-25T20:23:54.478Z,7.75
2022-09-25T20:26:23.327Z,3.80
2022-09-25T20:28:59.204Z,5.15
2022-09-25T20:31:27.889Z,4.40
2022-09-25T20:33:55.102Z,9.45
2022-09-25T20:36:22.933Z,5.97
2022-09-25T20:38:51.499Z,8.27
2022-09-25T20:41:19.625Z,7.88
2022-09-25T20:43:50.740Z,8.48
2022-09-25T20:46:20.492Z,8.73
2022-09-25T20:48:51.234Z,7.45
2022-09-25T20:51:20.831Z,11.20
2022-09-25T20:53:52.164Z,7.85
2022-09-25T20:56:19.617Z,7.75
2022-09-25T20:58:52.178Z,8.43
2022-09-25T21:01:22.910Z,8.25
2022-09-25T21:03:51.256Z,11.20
2022-09-25T21:06:19.313Z,9.23
2022-09-25T21:08:47.093Z,10.27
2022-09-25T21:11:13.893Z,10.02
2022-09-25T21:13:41.664Z,8.50
2022-09-25T21:16:11.063Z,13.02
2022-09-25T21:18:39.528Z,15.80
2022-09-25T21:21:16.143Z,10.88
2022-09-25T21:23:43.638Z,13.05
2022-09-25T21:26:14.968Z,11.32
2022-09-25T21:28:48.227Z,9.27
2022-09-25T21:33:42.615Z,11.57
2022-09-25T21:36:11.655Z,12.85
2022-09-25T21:38:38.629Z,8.60
2022-09-25T21:41:07.737Z,12.40
2022-09-25T21:43:35.641Z,15.15
2022-09-25T21:46:07.815Z,12.80
2022-09-25T21:48:36.156Z,11.52
2022-09-25T21:51:05.324Z,12.23
2022-09-25T21:53:33.936Z,14.75
2022-09-25T21:56:02.565Z,11.13
2022-09-25T21:58:29.630Z,12.93
2022-09-25T22:01:26.928Z,15.63
2022-09-25T22:03:57.020Z,11.23
2022-09-25T22:06:30.340Z,15.85
2022-09-25T22:09:01.705Z,19.50
2022-09-25T22:11:29.257Z,14.52
2022-09-25T22:13:57.874Z,29.45
2022-09-25T22:16:37.039Z,16.70
2022-09-25T22:19:19.153Z,14.52
2022-09-25T22:21:47.781Z,13.65
2022-09-25T22:24:18.131Z,15.18
2022-09-25T22:26:49.508Z,12.77
2022-09-25T22:29:21.159Z,16.02
2022-09-25T22:31:48.658Z,20.20
2022-09-25T22:34:18.410Z,24.60
2022-09-25T22:36:45.182Z,20.08
2022-09-25T22:39:14.430Z,22.35
2022-09-25T22:41:41.591Z,11.02
2022-09-25T22:44:08.454Z,10.95
2022-09-25T22:46:35.272Z,15.70
2022-09-25T22:49:02.914Z,13.38
2022-09-25T22:51:29.714Z,15.38
2022-09-25T22:53:56.504Z,18.65
2022-09-25T22:56:24.827Z,14.85
2022-09-25T22:58:57.678Z,11.40
2022-09-25T23:01:38.003Z,21.30
2022-09-25T23:04:07.762Z,16.58
2022-09-25T23:06:35.115Z,12.45
2022-09-25T23:09:05.447Z,13.05
2022-09-25T23:11:32.589Z,19.52
2022-09-25T23:14:01.684Z,22.20
2022-09-25T23:16:29.990Z,17.35
2022-09-25T23:19:00.762Z,16.30
2022-09-25T23:21:28.990Z,11.68
2022-09-25T23:24:00.951Z,12.02
2022-09-25T23:26:28.906Z,9.90
2022-09-25T23:28:55.883Z,11.85
2022-09-25T23:31:22.703Z,14.93
2022-09-25T23:33:49.491Z,17.00
2022-09-25T23:36:20.296Z,11.27
2022-09-25T23:38:48.304Z,16.15
2022-09-25T23:41:19.646Z,13.23
2022-09-25T23:43:47.650Z,10.95
2022-09-25T23:46:16.170Z,14.27
2022-09-25T23:48:44.220Z,10.60
2022-09-25T23:51:12.069Z,11.68
2022-09-25T23:53:38.899Z,15.10
2022-09-25T23:56:16.018Z,12.98
2022-09-25T23:58:43.124Z,22.05
